sensor_id;sensor_type;location;lat;lon;timestamp;pressure;altitude;pressure_sealevel;temperature;humidity
48862;BME280;34681;49.188;-0.374;2023-09-07T00:00:21;101403.06;;;27.89;nan
48862;BME280;34681;49.188;-0.374;2023-09-07T00:02:46;101403.28;;;27.88;nan
48862;BME280;34681;49.188;-0.374;2023-09-07T00:05:11;101403.94;;;27.90;nan
48862;BME280;34681;49.188;-0.374;2023-09-07T00:07:39;101396.59;;;27.89;nan
48862;BME280;34681;49.188;-0.374;2023-09-07T00:10:05;101407.34;;;27.92;nan
48862;BME280;34681;49.188;-0.374;2023-09-07T00:12:30;101398.91;;;27.92;nan
48862;BME280;34681;49.188;-0.374;2023-09-07T00:14:57;101392.19;;;27.93;nan
48862;BME280;34681;49.188;-0.374;2023-09-07T00:17:23;101385.09;;;27.90;nan
48862;BME280;34681;49.188;-0.374;2023-09-07T00:19:48;101379.47;;;27.90;nan
48862;BME280;34681;49.188;-0.374;2023-09-07T00:22:16;101378.63;;;27.90;nan
48862;BME280;34681;49.188;-0.374;2023-09-07T00:24:42;101385.94;;;27.91;nan
48862;BME280;34681;49.188;-0.374;2023-09-07T00:27:08;101382.88;;;27.92;nan
48862;BME280;34681;49.188;-0.374;2023-09-07T00:29:35;101389.38;;;27.93;nan
48862;BME280;34681;49.188;-0.374;2023-09-07T00:32:00;101382.03;;;27.92;nan
48862;BME280;34681;49.188;-0.374;2023-09-07T00:34:26;101386.56;;;27.93;nan
48862;BME280;34681;49.188;-0.374;2023-09-07T00:36:51;101391.94;;;27.94;nan
48862;BME280;34681;49.188;-0.374;2023-09-07T00:39:16;101389.97;;;27.95;nan
48862;BME280;34681;49.188;-0.374;2023-09-07T00:41:42;101387.16;;;27.95;nan
48862;BME280;34681;49.188;-0.374;2023-09-07T00:44:07;101389.97;;;27.95;nan
48862;BME280;34681;49.188;-0.374;2023-09-07T00:46:33;101384.34;;;27.95;nan
48862;BME280;34681;49.188;-0.374;2023-09-07T00:48:58;101383.25;;;27.96;nan
48862;BME280;34681;49.188;-0.374;2023-09-07T00:51:24;101384.34;;;27.95;nan
48862;BME280;34681;49.188;-0.374;2023-09-07T00:53:49;101380.69;;;27.94;nan
48862;BME280;34681;49.188;-0.374;2023-09-07T00:56:15;101380.69;;;27.94;nan
48862;BME280;34681;49.188;-0.374;2023-09-07T00:58:41;101376.16;;;27.93;nan
48862;BME280;34681;49.188;-0.374;2023-09-07T01:01:06;101375.31;;;27.93;nan
48862;BME280;34681;49.188;-0.374;2023-09-07T01:03:32;101371.63;;;27.92;nan
48862;BME280;34681;49.188;-0.374;2023-09-07T01:06:18;101368.56;;;27.94;nan
48862;BME280;34681;49.188;-0.374;2023-09-07T01:08:49;101359.78;;;27.90;nan
48862;BME280;34681;49.188;-0.374;2023-09-07T01:11:19;101351.34;;;27.90;nan
48862;BME280;34681;49.188;-0.374;2023-09-07T01:13:48;101354.44;;;27.89;nan
48862;BME280;34681;49.188;-0.374;2023-09-07T01:16:14;101357.47;;;27.87;nan
48862;BME280;34681;49.188;-0.374;2023-09-07T01:18:40;101363.06;;;27.87;nan
48862;BME280;34681;49.188;-0.374;2023-09-07T01:21:06;101352.94;;;27.86;nan
48862;BME280;34681;49.188;-0.374;2023-09-07T01:23:36;101353.78;;;27.87;nan
48862;BME280;34681;49.188;-0.374;2023-09-07T01:26:03;101357.72;;;27.86;nan
48862;BME280;34681;49.188;-0.374;2023-09-07T01:28:29;101353.19;;;27.85;nan
48862;BME280;34681;49.188;-0.374;2023-09-07T01:30:54;101364.44;;;27.85;nan
48862;BME280;34681;49.188;-0.374;2023-09-07T01:33:20;101356.84;;;27.85;nan
48862;BME280;34681;49.188;-0.374;2023-09-07T01:35:46;101350.13;;;27.86;nan
48862;BME280;34681;49.188;-0.374;2023-09-07T01:38:11;101352.94;;;27.86;nan
48862;BME280;34681;49.188;-0.374;2023-09-07T01:40:37;101347.56;;;27.85;nan
48862;BME280;34681;49.188;-0.374;2023-09-07T01:43:02;101343.91;;;27.84;nan
48862;BME280;34681;49.188;-0.374;2023-09-07T01:45:27;101349.78;;;27.83;nan
48862;BME280;34681;49.188;-0.374;2023-09-07T01:47:53;101345.25;;;27.82;nan
48862;BME280;34681;49.188;-0.374;2023-09-07T01:50:18;101345.25;;;27.82;nan
48862;BME280;34681;49.188;-0.374;2023-09-07T01:52:46;101340.75;;;27.81;nan
48862;BME280;34681;49.188;-0.374;2023-09-07T01:55:13;101345.25;;;27.82;nan
48862;BME280;34681;49.188;-0.374;2023-09-07T01:57:39;101340.75;;;27.81;nan
48862;BME280;34681;49.188;-0.374;2023-09-07T02:00:05;101334.22;;;27.80;nan
48862;BME280;34681;49.188;-0.374;2023-09-07T02:02:32;101333.38;;;27.80;nan
48862;BME280;34681;49.188;-0.374;2023-09-07T02:04:58;101333.38;;;27.80;nan
48862;BME280;34681;49.188;-0.374;2023-09-07T02:07:23;101339.84;;;27.80;nan
48862;BME280;34681;49.188;-0.374;2023-09-07T02:09:49;101339.00;;;27.80;nan
48862;BME280;34681;49.188;-0.374;2023-09-07T02:12:14;101338.16;;;27.79;nan
48862;BME280;34681;49.188;-0.374;2023-09-07T02:14:39;101333.38;;;27.80;nan
48862;BME280;34681;49.188;-0.374;2023-09-07T02:17:05;101336.19;;;27.80;nan
48862;BME280;34681;49.188;-0.374;2023-09-07T02:19:30;101329.72;;;27.79;nan
48862;BME280;34681;49.188;-0.374;2023-09-07T02:21:55;101329.97;;;27.78;nan
48862;BME280;34681;49.188;-0.374;2023-09-07T02:24:21;101325.19;;;27.78;nan
48862;BME280;34681;49.188;-0.374;2023-09-07T02:26:46;101327.16;;;27.78;nan
48862;BME280;34681;49.188;-0.374;2023-09-07T02:29:14;101322.38;;;27.78;nan
48862;BME280;34681;49.188;-0.374;2023-09-07T02:31:40;101331.06;;;27.77;nan
48862;BME280;34681;49.188;-0.374;2023-09-07T02:34:06;101326.56;;;27.76;nan
48862;BME280;34681;49.188;-0.374;2023-09-07T02:36:31;101328.25;;;27.77;nan
48862;BME280;34681;49.188;-0.374;2023-09-07T02:38:57;101329.97;;;27.78;nan
48862;BME280;34681;49.188;-0.374;2023-09-07T02:41:22;101324.59;;;27.76;nan
48862;BME280;34681;49.188;-0.374;2023-09-07T02:43:47;101325.69;;;27.75;nan
48862;BME280;34681;49.188;-0.374;2023-09-07T02:46:13;101311.66;;;27.75;nan
48862;BME280;34681;49.188;-0.374;2023-09-07T02:48:38;101321.78;;;27.76;nan
48862;BME280;34681;49.188;-0.374;2023-09-07T02:51:03;101322.03;;;27.75;nan
48862;BME280;34681;49.188;-0.374;2023-09-07T02:53:29;101317.75;;;27.72;nan
48862;BME280;34681;49.188;-0.374;2023-09-07T02:55:55;101310.19;;;27.73;nan
48862;BME280;34681;49.188;-0.374;2023-09-07T02:58:21;101319.47;;;27.73;nan
48862;BME280;34681;49.188;-0.374;2023-09-07T03:00:46;101316.69;;;27.73;nan
48862;BME280;34681;49.188;-0.374;2023-09-07T03:03:13;101319.47;;;27.73;nan
48862;BME280;34681;49.188;-0.374;2023-09-07T03:05:42;101314.94;;;27.72;nan
48862;BME280;34681;49.188;-0.374;2023-09-07T03:08:08;101315.19;;;27.70;nan
48862;BME280;34681;49.188;-0.374;2023-09-07T03:10:35;101310.41;;;27.71;nan
48862;BME280;34681;49.188;-0.374;2023-09-07T03:13:00;101318.00;;;27.70;nan
48862;BME280;34681;49.188;-0.374;2023-09-07T03:15:26;101309.31;;;27.72;nan
48862;BME280;34681;49.188;-0.374;2023-09-07T03:17:52;101318.00;;;27.70;nan
48862;BME280;34681;49.188;-0.374;2023-09-07T03:20:17;101320.81;;;27.70;nan
48862;BME280;34681;49.188;-0.374;2023-09-07T03:22:44;101317.16;;;27.70;nan
48862;BME280;34681;49.188;-0.374;2023-09-07T03:25:10;101318.00;;;27.70;nan
48862;BME280;34681;49.188;-0.374;2023-09-07T03:27:36;101308.97;;;27.68;nan
48862;BME280;34681;49.188;-0.374;2023-09-07T03:30:03;101309.81;;;27.69;nan
48862;BME280;34681;49.188;-0.374;2023-09-07T03:32:29;101306.16;;;27.68;nan
48862;BME280;34681;49.188;-0.374;2023-09-07T03:35:03;101307.88;;;27.69;nan
48862;BME280;34681;49.188;-0.374;2023-09-07T03:37:32;101297.13;;;27.66;nan
48862;BME280;34681;49.188;-0.374;2023-09-07T03:39:57;101299.94;;;27.66;nan
48862;BME280;34681;49.188;-0.374;2023-09-07T03:42:23;101308.59;;;27.65;nan
48862;BME280;34681;49.188;-0.374;2023-09-07T03:44:48;101308.59;;;27.65;nan
48862;BME280;34681;49.188;-0.374;2023-09-07T03:47:14;101308.59;;;27.65;nan
48862;BME280;34681;49.188;-0.374;2023-09-07T03:49:40;101308.81;;;27.63;nan
48862;BME280;34681;49.188;-0.374;2023-09-07T03:52:06;101318.13;;;27.64;nan
48862;BME280;34681;49.188;-0.374;2023-09-07T03:54:31;101309.69;;;27.64;nan
48862;BME280;34681;49.188;-0.374;2023-09-07T03:56:57;101316.16;;;27.64;nan
48862;BME280;34681;49.188;-0.374;2023-09-07T03:59:22;101317.22;;;27.63;nan
48862;BME280;34681;49.188;-0.374;2023-09-07T04:01:48;101316.38;;;27.63;nan
48862;BME280;34681;49.188;-0.374;2023-09-07T04:04:13;101315.53;;;27.62;nan
48862;BME280;34681;49.188;-0.374;2023-09-07T04:06:38;101314.69;;;27.62;nan
48862;BME280;34681;49.188;-0.374;2023-09-07T04:09:04;101323.97;;;27.62;nan
48862;BME280;34681;49.188;-0.374;2023-09-07T04:11:29;101322.00;;;27.63;nan
48862;BME280;34681;49.188;-0.374;2023-09-07T04:13:55;101320.28;;;27.62;nan
48862;BME280;34681;49.188;-0.374;2023-09-07T04:16:20;101316.63;;;27.61;nan
48862;BME280;34681;49.188;-0.374;2023-09-07T04:18:45;101319.44;;;27.61;nan
48862;BME280;34681;49.188;-0.374;2023-09-07T04:21:11;101312.13;;;27.60;nan
48862;BME280;34681;49.188;-0.374;2023-09-07T04:23:36;101306.50;;;27.60;nan
48862;BME280;34681;49.188;-0.374;2023-09-07T04:26:12;101309.06;;;27.62;nan
48862;BME280;34681;49.188;-0.374;2023-09-07T04:28:38;101309.31;;;27.60;nan
48862;BME280;34681;49.188;-0.374;2023-09-07T04:31:05;101308.44;;;27.60;nan
48862;BME280;34681;49.188;-0.374;2023-09-07T04:33:31;101298.06;;;27.60;nan
48862;BME280;34681;49.188;-0.374;2023-09-07T04:36:06;101303.19;;;27.63;nan
48862;BME280;34681;49.188;-0.374;2023-09-07T04:38:32;101303.09;;;27.58;nan
48862;BME280;34681;49.188;-0.374;2023-09-07T04:41:08;101302.59;;;27.61;nan
48862;BME280;34681;49.188;-0.374;2023-09-07T04:43:33;101291.25;;;27.56;nan
48862;BME280;34681;49.188;-0.374;2023-09-07T04:45:59;101303.34;;;27.57;nan
48862;BME280;34681;49.188;-0.374;2023-09-07T04:48:24;101302.50;;;27.56;nan
48862;BME280;34681;49.188;-0.374;2023-09-07T04:51:00;101297.47;;;27.58;nan
48862;BME280;34681;49.188;-0.374;2023-09-07T04:53:28;101302.50;;;27.56;nan
48862;BME280;34681;49.188;-0.374;2023-09-07T04:55:54;101304.66;;;27.54;nan
48862;BME280;34681;49.188;-0.374;2023-09-07T04:58:19;101301.84;;;27.54;nan
48862;BME280;34681;49.188;-0.374;2023-09-07T05:00:44;101306.63;;;27.54;nan
48862;BME280;34681;49.188;-0.374;2023-09-07T05:03:10;101301.50;;;27.51;nan
48862;BME280;34681;49.188;-0.374;2023-09-07T05:05:35;101307.13;;;27.51;nan
48862;BME280;34681;49.188;-0.374;2023-09-07T05:08:00;101309.06;;;27.50;nan
48862;BME280;34681;49.188;-0.374;2023-09-07T05:10:26;101312.75;;;27.51;nan
48862;BME280;34681;49.188;-0.374;2023-09-07T05:12:52;101316.41;;;27.51;nan
48862;BME280;34681;49.188;-0.374;2023-09-07T05:15:17;101318.13;;;27.52;nan
48862;BME280;34681;49.188;-0.374;2023-09-07T05:17:42;101315.56;;;27.51;nan
48862;BME280;34681;49.188;-0.374;2023-09-07T05:20:08;101313.84;;;27.50;nan
48862;BME280;34681;49.188;-0.374;2023-09-07T05:22:34;101313.84;;;27.50;nan
48862;BME280;34681;49.188;-0.374;2023-09-07T05:25:02;101326.19;;;27.49;nan
48862;BME280;34681;49.188;-0.374;2023-09-07T05:27:28;101323.13;;;27.50;nan
48862;BME280;34681;49.188;-0.374;2023-09-07T05:29:53;101322.28;;;27.50;nan
48862;BME280;34681;49.188;-0.374;2023-09-07T05:32:19;101317.50;;;27.50;nan
48862;BME280;34681;49.188;-0.374;2023-09-07T05:34:44;101326.78;;;27.51;nan
48862;BME280;34681;49.188;-0.374;2023-09-07T05:37:09;101321.44;;;27.49;nan
48862;BME280;34681;49.188;-0.374;2023-09-07T05:39:35;101319.47;;;27.50;nan
48862;BME280;34681;49.188;-0.374;2023-09-07T05:42:00;101320.31;;;27.50;nan
48862;BME280;34681;49.188;-0.374;2023-09-07T05:44:25;101323.13;;;27.50;nan
48862;BME280;34681;49.188;-0.374;2023-09-07T05:46:51;101319.47;;;27.50;nan
48862;BME280;34681;49.188;-0.374;2023-09-07T05:49:16;101327.91;;;27.50;nan
48862;BME280;34681;49.188;-0.374;2023-09-07T05:51:41;101322.28;;;27.50;nan
48862;BME280;34681;49.188;-0.374;2023-09-07T05:54:07;101328.75;;;27.50;nan
48862;BME280;34681;49.188;-0.374;2023-09-07T05:56:32;101331.56;;;27.50;nan
48862;BME280;34681;49.188;-0.374;2023-09-07T05:58:59;101324.25;;;27.49;nan
48862;BME280;34681;49.188;-0.374;2023-09-07T06:01:24;101329.59;;;27.51;nan
48862;BME280;34681;49.188;-0.374;2023-09-07T06:03:49;101328.75;;;27.50;nan
48862;BME280;34681;49.188;-0.374;2023-09-07T06:06:15;101328.50;;;27.52;nan
48862;BME280;34681;49.188;-0.374;2023-09-07T06:08:40;101320.06;;;27.52;nan
48862;BME280;34681;49.188;-0.374;2023-09-07T06:11:06;101319.22;;;27.51;nan
48862;BME280;34681;49.188;-0.374;2023-09-07T06:13:31;101317.50;;;27.50;nan
48862;BME280;34681;49.188;-0.374;2023-09-07T06:15:56;101320.31;;;27.50;nan
48862;BME280;34681;49.188;-0.374;2023-09-07T06:18:22;101320.31;;;27.50;nan
48862;BME280;34681;49.188;-0.374;2023-09-07T06:20:47;101323.97;;;27.51;nan
48862;BME280;34681;49.188;-0.374;2023-09-07T06:23:13;101320.31;;;27.50;nan
48862;BME280;34681;49.188;-0.374;2023-09-07T06:25:38;101331.31;;;27.52;nan
48862;BME280;34681;49.188;-0.374;2023-09-07T06:28:04;101320.31;;;27.50;nan
48862;BME280;34681;49.188;-0.374;2023-09-07T06:30:29;101323.97;;;27.51;nan
48862;BME280;34681;49.188;-0.374;2023-09-07T06:32:54;101325.69;;;27.52;nan
48862;BME280;34681;49.188;-0.374;2023-09-07T06:35:21;101329.09;;;27.54;nan
48862;BME280;34681;49.188;-0.374;2023-09-07T06:37:46;101328.25;;;27.53;nan
48862;BME280;34681;49.188;-0.374;2023-09-07T06:40:12;101331.06;;;27.53;nan
48862;BME280;34681;49.188;-0.374;2023-09-07T06:42:38;101328.25;;;27.53;nan
48862;BME280;34681;49.188;-0.374;2023-09-07T06:45:04;101329.97;;;27.54;nan
48862;BME280;34681;49.188;-0.374;2023-09-07T06:47:30;101323.47;;;27.54;nan
48862;BME280;34681;49.188;-0.374;2023-09-07T06:49:56;101327.16;;;27.54;nan
48862;BME280;34681;49.188;-0.374;2023-09-07T06:52:22;101323.47;;;27.54;nan
48862;BME280;34681;49.188;-0.374;2023-09-07T06:54:51;101325.81;;;27.57;nan
48862;BME280;34681;49.188;-0.374;2023-09-07T06:57:16;101327.78;;;27.56;nan
48862;BME280;34681;49.188;-0.374;2023-09-07T06:59:41;101327.53;;;27.58;nan
48862;BME280;34681;49.188;-0.374;2023-09-07T07:02:08;101333.41;;;27.56;nan
48862;BME280;34681;49.188;-0.374;2023-09-07T07:04:34;101332.28;;;27.57;nan
48862;BME280;34681;49.188;-0.374;2023-09-07T07:07:00;101335.09;;;27.57;nan
48862;BME280;34681;49.188;-0.374;2023-09-07T07:09:30;101332.28;;;27.57;nan
48862;BME280;34681;49.188;-0.374;2023-09-07T07:11:56;101326.69;;;27.57;nan
48862;BME280;34681;49.188;-0.374;2023-09-07T07:14:21;101328.38;;;27.58;nan
48862;BME280;34681;49.188;-0.374;2023-09-07T07:16:46;101324.22;;;27.61;nan
48862;BME280;34681;49.188;-0.374;2023-09-07T07:19:12;101326.16;;;27.60;nan
48862;BME280;34681;49.188;-0.374;2023-09-07T07:21:37;101325.06;;;27.61;nan
48862;BME280;34681;49.188;-0.374;2023-09-07T07:24:03;101324.81;;;27.63;nan
48862;BME280;34681;49.188;-0.374;2023-09-07T07:26:31;101326.56;;;27.64;nan
48862;BME280;34681;49.188;-0.374;2023-09-07T07:28:56;101323.75;;;27.64;nan
48862;BME280;34681;49.188;-0.374;2023-09-07T07:31:21;101331.94;;;27.65;nan
48862;BME280;34681;49.188;-0.374;2023-09-07T07:33:47;101335.59;;;27.66;nan
48862;BME280;34681;49.188;-0.374;2023-09-07T07:36:13;101332.78;;;27.66;nan
48862;BME280;34681;49.188;-0.374;2023-09-07T07:38:39;101332.56;;;27.67;nan
48862;BME280;34681;49.188;-0.374;2023-09-07T07:41:04;101330.59;;;27.68;nan
48862;BME280;34681;49.188;-0.374;2023-09-07T07:43:30;101332.31;;;27.69;nan
48862;BME280;34681;49.188;-0.374;2023-09-07T07:45:57;101329.25;;;27.70;nan
48862;BME280;34681;49.188;-0.374;2023-09-07T07:48:22;101334.59;;;27.72;nan
48862;BME280;34681;49.188;-0.374;2023-09-07T07:50:48;101340.88;;;27.74;nan
48862;BME280;34681;49.188;-0.374;2023-09-07T07:53:13;101335.84;;;27.76;nan
48862;BME280;34681;49.188;-0.374;2023-09-07T07:55:40;101331.69;;;27.79;nan
48862;BME280;34681;49.188;-0.374;2023-09-07T07:58:08;101341.59;;;27.81;nan
48862;BME280;34681;49.188;-0.374;2023-09-07T08:00:38;101334.63;;;27.84;nan
48862;BME280;34681;49.188;-0.374;2023-09-07T08:03:04;101339.97;;;27.85;nan
48862;BME280;34681;49.188;-0.374;2023-09-07T08:05:33;101330.44;;;27.86;nan
48862;BME280;34681;49.188;-0.374;2023-09-07T08:07:59;101331.28;;;27.87;nan
48862;BME280;34681;49.188;-0.374;2023-09-07T08:10:24;101336.44;;;27.90;nan
48862;BME280;34681;49.188;-0.374;2023-09-07T08:12:54;101328.59;;;27.92;nan
48862;BME280;34681;49.188;-0.374;2023-09-07T08:15:20;101328.59;;;27.92;nan
48862;BME280;34681;49.188;-0.374;2023-09-07T08:17:48;101329.22;;;27.94;nan
48862;BME280;34681;49.188;-0.374;2023-09-07T08:20:14;101330.91;;;27.95;nan
48862;BME280;34681;49.188;-0.374;2023-09-07T08:22:40;101332.88;;;27.94;nan
48862;BME280;34681;49.188;-0.374;2023-09-07T08:25:08;101334.56;;;27.95;nan
48862;BME280;34681;49.188;-0.374;2023-09-07T08:27:33;101328.09;;;27.95;nan
48862;BME280;34681;49.188;-0.374;2023-09-07T08:29:59;101325.28;;;27.95;nan
48862;BME280;34681;49.188;-0.374;2023-09-07T08:32:24;101328.47;;;27.98;nan
48862;BME280;34681;49.188;-0.374;2023-09-07T08:34:50;101339.09;;;27.96;nan
48862;BME280;34681;49.188;-0.374;2023-09-07T08:37:16;101332.41;;;27.97;nan
48862;BME280;34681;49.188;-0.374;2023-09-07T08:39:42;101332.41;;;27.97;nan
48862;BME280;34681;49.188;-0.374;2023-09-07T08:42:07;101331.28;;;27.98;nan
48862;BME280;34681;49.188;-0.374;2023-09-07T08:44:34;101330.19;;;27.99;nan
48862;BME280;34681;49.188;-0.374;2023-09-07T08:47:02;101335.31;;;28.03;nan
48862;BME280;34681;49.188;-0.374;2023-09-07T08:49:29;101332.22;;;28.04;nan
48862;BME280;34681;49.188;-0.374;2023-09-07T08:51:59;101338.13;;;28.03;nan
48862;BME280;34681;49.188;-0.374;2023-09-07T08:54:26;101334.69;;;28.01;nan
48862;BME280;34681;49.188;-0.374;2023-09-07T08:56:52;101334.44;;;28.02;nan
48862;BME280;34681;49.188;-0.374;2023-09-07T08:59:17;101333.34;;;28.03;nan
48862;BME280;34681;49.188;-0.374;2023-09-07T09:01:43;101327.72;;;28.03;nan
48862;BME280;34681;49.188;-0.374;2023-09-07T09:04:09;101324.66;;;28.05;nan
48862;BME280;34681;49.188;-0.374;2023-09-07T09:06:34;101323.78;;;28.04;nan
48862;BME280;34681;49.188;-0.374;2023-09-07T09:08:59;101321.84;;;28.05;nan
48862;BME280;34681;49.188;-0.374;2023-09-07T09:11:26;101325.50;;;28.05;nan
48862;BME280;34681;49.188;-0.374;2023-09-07T09:13:53;101328.09;;;28.07;nan
48862;BME280;34681;49.188;-0.374;2023-09-07T09:16:19;101324.44;;;28.06;nan
48862;BME280;34681;49.188;-0.374;2023-09-07T09:21:21;101323.31;;;28.07;nan
48862;BME280;34681;49.188;-0.374;2023-09-07T09:23:48;101322.47;;;28.07;nan
48862;BME280;34681;49.188;-0.374;2023-09-07T09:26:15;101316.59;;;28.08;nan
48862;BME280;34681;49.188;-0.374;2023-09-07T09:28:40;101318.28;;;28.09;nan
48862;BME280;34681;49.188;-0.374;2023-09-07T09:31:06;101318.28;;;28.09;nan
48862;BME280;34681;49.188;-0.374;2023-09-07T09:33:37;101317.19;;;28.10;nan
48862;BME280;34681;49.188;-0.374;2023-09-07T09:36:03;101310.69;;;28.10;nan
48862;BME280;34681;49.188;-0.374;2023-09-07T09:38:29;101315.22;;;28.11;nan
48862;BME280;34681;49.188;-0.374;2023-09-07T09:40:57;101311.31;;;28.12;nan
48862;BME280;34681;49.188;-0.374;2023-09-07T09:43:24;101310.44;;;28.11;nan
48862;BME280;34681;49.188;-0.374;2023-09-07T09:45:50;101311.31;;;28.12;nan
48862;BME280;34681;49.188;-0.374;2023-09-07T09:48:18;101304.94;;;28.16;nan
48862;BME280;34681;49.188;-0.374;2023-09-07T09:50:46;101312.03;;;28.31;nan
48862;BME280;34681;49.188;-0.374;2023-09-07T09:53:12;101309.66;;;28.39;nan
48862;BME280;34681;49.188;-0.374;2023-09-07T09:55:41;101313.66;;;28.43;nan
48862;BME280;34681;49.188;-0.374;2023-09-07T09:58:06;101316.84;;;28.47;nan
48862;BME280;34681;49.188;-0.374;2023-09-07T10:00:32;101300.56;;;28.49;nan
48862;BME280;34681;49.188;-0.374;2023-09-07T10:03:07;101310.69;;;28.50;nan
48862;BME280;34681;49.188;-0.374;2023-09-07T10:05:33;101304.22;;;28.49;nan
48862;BME280;34681;49.188;-0.374;2023-09-07T10:08:08;101307.75;;;28.57;nan
48862;BME280;34681;49.188;-0.374;2023-09-07T10:10:35;101304.28;;;28.54;nan
48862;BME280;34681;49.188;-0.374;2023-09-07T10:13:01;101298.94;;;28.53;nan
48862;BME280;34681;49.188;-0.374;2023-09-07T10:15:27;101303.44;;;28.54;nan
48862;BME280;34681;49.188;-0.374;2023-09-07T10:18:13;101305.84;;;28.62;nan
48862;BME280;34681;49.188;-0.374;2023-09-07T10:23:19;101308.66;;;28.62;nan
48862;BME280;34681;49.188;-0.374;2023-09-07T10:25:52;101304.78;;;28.63;nan
48862;BME280;34681;49.188;-0.374;2023-09-07T10:28:19;101305.00;;;28.62;nan
48862;BME280;34681;49.188;-0.374;2023-09-07T10:30:45;101297.66;;;28.61;nan
48862;BME280;34681;49.188;-0.374;2023-09-07T10:33:21;101298.03;;;28.64;nan
48862;BME280;34681;49.188;-0.374;2023-09-07T10:35:46;101291.19;;;28.60;nan
48862;BME280;34681;49.188;-0.374;2023-09-07T10:38:14;101294.00;;;28.60;nan
48862;BME280;34681;49.188;-0.374;2023-09-07T10:40:41;101290.06;;;28.61;nan
48862;BME280;34681;49.188;-0.374;2023-09-07T10:43:09;101289.22;;;28.61;nan
48862;BME280;34681;49.188;-0.374;2023-09-07T10:45:34;101280.50;;;28.62;nan
48862;BME280;34681;49.188;-0.374;2023-09-07T10:47:59;101281.63;;;28.61;nan
48862;BME280;34681;49.188;-0.374;2023-09-07T10:50:25;101280.50;;;28.62;nan
48862;BME280;34681;49.188;-0.374;2023-09-07T10:52:50;101280.50;;;28.62;nan
48862;BME280;34681;49.188;-0.374;2023-09-07T10:55:15;101278.56;;;28.63;nan
48862;BME280;34681;49.188;-0.374;2023-09-07T10:57:45;101276.63;;;28.63;nan
48862;BME280;34681;49.188;-0.374;2023-09-07T11:00:11;101280.28;;;28.64;nan
48862;BME280;34681;49.188;-0.374;2023-09-07T11:02:38;101268.19;;;28.63;nan
48862;BME280;34681;49.188;-0.374;2023-09-07T11:05:03;101268.19;;;28.63;nan
48862;BME280;34681;49.188;-0.374;2023-09-07T11:07:29;101266.22;;;28.64;nan
48862;BME280;34681;49.188;-0.374;2023-09-07T11:09:55;101260.59;;;28.64;nan
48862;BME280;34681;49.188;-0.374;2023-09-07T11:12:20;101254.94;;;28.64;nan
48862;BME280;34681;49.188;-0.374;2023-09-07T11:14:50;101265.09;;;28.65;nan
48862;BME280;34681;49.188;-0.374;2023-09-07T11:17:16;101267.06;;;28.64;nan
48862;BME280;34681;49.188;-0.374;2023-09-07T11:19:41;101257.78;;;28.64;nan
48862;BME280;34681;49.188;-0.374;2023-09-07T11:22:10;101264.00;;;28.66;nan
48862;BME280;34681;49.188;-0.374;2023-09-07T11:24:35;101254.69;;;28.65;nan
48862;BME280;34681;49.188;-0.374;2023-09-07T11:27:01;101264.00;;;28.66;nan
48862;BME280;34681;49.188;-0.374;2023-09-07T11:29:31;101254.44;;;28.67;nan
48862;BME280;34681;49.188;-0.374;2023-09-07T11:32:06;101244.63;;;28.69;nan
48862;BME280;34681;49.188;-0.374;2023-09-07T11:34:31;101248.53;;;28.68;nan
48862;BME280;34681;49.188;-0.374;2023-09-07T11:36:57;101240.94;;;28.69;nan
48862;BME280;34681;49.188;-0.374;2023-09-07T11:39:23;101244.34;;;28.71;nan
48862;BME280;34681;49.188;-0.374;2023-09-07T11:41:48;101238.72;;;28.71;nan
48862;BME280;34681;49.188;-0.374;2023-09-07T11:44:13;101227.22;;;28.72;nan
48862;BME280;34681;49.188;-0.374;2023-09-07T11:46:39;101232.88;;;28.72;nan
48862;BME280;34681;49.188;-0.374;2023-09-07T11:49:04;101236.53;;;28.73;nan
48862;BME280;34681;49.188;-0.374;2023-09-07T11:51:31;101229.78;;;28.74;nan
48862;BME280;34681;49.188;-0.374;2023-09-07T11:53:56;101232.59;;;28.74;nan
48862;BME280;34681;49.188;-0.374;2023-09-07T11:56:21;101234.31;;;28.75;nan
48862;BME280;34681;49.188;-0.374;2023-09-07T11:58:47;101227.56;;;28.76;nan
48862;BME280;34681;49.188;-0.374;2023-09-07T12:01:13;101225.84;;;28.75;nan
48862;BME280;34681;49.188;-0.374;2023-09-07T12:03:42;101222.19;;;28.74;nan
48862;BME280;34681;49.188;-0.374;2023-09-07T12:06:08;101222.19;;;28.74;nan
48862;BME280;34681;49.188;-0.374;2023-09-07T12:08:33;101211.53;;;28.76;nan
48862;BME280;34681;49.188;-0.374;2023-09-07T12:10:58;101216.28;;;28.76;nan
48862;BME280;34681;49.188;-0.374;2023-09-07T12:13:24;101212.38;;;28.77;nan
48862;BME280;34681;49.188;-0.374;2023-09-07T12:15:50;101218.84;;;28.77;nan
48862;BME280;34681;49.188;-0.374;2023-09-07T12:18:16;101207.84;;;28.76;nan
48862;BME280;34681;49.188;-0.374;2023-09-07T12:20:42;101208.69;;;28.76;nan
48862;BME280;34681;49.188;-0.374;2023-09-07T12:23:09;101216.88;;;28.78;nan
48862;BME280;34681;49.188;-0.374;2023-09-07T12:25:35;101212.38;;;28.77;nan
48862;BME280;34681;49.188;-0.374;2023-09-07T12:28:00;101216.88;;;28.78;nan
48862;BME280;34681;49.188;-0.374;2023-09-07T12:30:26;101215.78;;;28.79;nan
48862;BME280;34681;49.188;-0.374;2023-09-07T12:32:52;101222.50;;;28.78;nan
48862;BME280;34681;49.188;-0.374;2023-09-07T12:35:17;101218.84;;;28.77;nan
48862;BME280;34681;49.188;-0.374;2023-09-07T12:37:43;101214.91;;;28.78;nan
48862;BME280;34681;49.188;-0.374;2023-09-07T12:40:09;101209.28;;;28.78;nan
48862;BME280;34681;49.188;-0.374;2023-09-07T12:42:41;101208.19;;;28.79;nan
48862;BME280;34681;49.188;-0.374;2023-09-07T12:45:11;101216.63;;;28.79;nan
48862;BME280;34681;49.188;-0.374;2023-09-07T12:47:38;101212.09;;;28.78;nan
48862;BME280;34681;49.188;-0.374;2023-09-07T12:50:04;101199.72;;;28.79;nan
48862;BME280;34681;49.188;-0.374;2023-09-07T12:52:30;101201.47;;;28.80;nan
48862;BME280;34681;49.188;-0.374;2023-09-07T12:54:56;101196.69;;;28.81;nan
48862;BME280;34681;49.188;-0.374;2023-09-07T12:57:21;101194.47;;;28.83;nan
48862;BME280;34681;49.188;-0.374;2023-09-07T12:59:47;101198.38;;;28.82;nan